<?xml version="1.0" encoding="UTF-8" standalone="no" ?>
<gpx xmlns="http://www.topografix.com/GPX/1/1" xmlns:xsi="http://www.w3.org/2001/XMLSchema-instance" xsi:schemaLocation="http://www.topografix.com/GPX/1/1 http://www.topografix.com/GPX/1/1/gpx.xsd" version="1.1" creator="VisuGPX - https://www.visugpx.com">
  <metadata>
    <name>AVF-22-10-2013-Callas-Chapelle Ste Auxile</name>
    <desc><![CDATA[Callas-Chapelle Ste Auxile]]></desc>
  </metadata>
  <trk>
    <name><![CDATA[Callas]]></name>
    <trkseg>
      <trkpt lat="43.59332" lon="6.53986">
        <ele>353.71</ele>
        <time>2013-10-22T11:49:44Z</time>
      </trkpt>
      <trkpt lat="43.59346" lon="6.53994">
        <ele>357.43</ele>
        <time>2013-10-22T11:51:07Z</time>
      </trkpt>
      <trkpt lat="43.59326" lon="6.53987">
        <ele>361.46</ele>
        <time>2013-10-22T11:51:31Z</time>
      </trkpt>
      <trkpt lat="43.59326" lon="6.53987">
        <ele>361.46</ele>
        <time>2013-10-22T11:51:31Z</time>
      </trkpt>
      <trkpt lat="43.59309" lon="6.53979">
        <ele>362.23</ele>
        <time>2013-10-22T11:51:51Z</time>
      </trkpt>
      <trkpt lat="43.59291" lon="6.53977">
        <ele>363.1</ele>
        <time>2013-10-22T11:52:13Z</time>
      </trkpt>
      <trkpt lat="43.59296" lon="6.53987">
        <ele>364.77</ele>
        <time>2013-10-22T11:52:50Z</time>
      </trkpt>
      <trkpt lat="43.59279" lon="6.5398">
        <ele>365.38</ele>
        <time>2013-10-22T11:53:02Z</time>
      </trkpt>
      <trkpt lat="43.59293" lon="6.53995">
        <ele>363.6</ele>
        <time>2013-10-22T11:53:50Z</time>
      </trkpt>
      <trkpt lat="43.59305" lon="6.54015">
        <ele>364.24</ele>
        <time>2013-10-22T11:54:17Z</time>
      </trkpt>
      <trkpt lat="43.59305" lon="6.54015">
        <ele>364.24</ele>
        <time>2013-10-22T11:54:17Z</time>
      </trkpt>
      <trkpt lat="43.59303" lon="6.5404">
        <ele>359.68</ele>
        <time>2013-10-22T11:54:43Z</time>
      </trkpt>
      <trkpt lat="43.59307" lon="6.54064">
        <ele>356.85</ele>
        <time>2013-10-22T11:55:12Z</time>
      </trkpt>
      <trkpt lat="43.59301" lon="6.54106">
        <ele>356.39</ele>
        <time>2013-10-22T11:55:39Z</time>
      </trkpt>
      <trkpt lat="43.59304" lon="6.54131">
        <ele>355.77</ele>
        <time>2013-10-22T11:55:52Z</time>
      </trkpt>
      <trkpt lat="43.5931" lon="6.54156">
        <ele>354.05</ele>
        <time>2013-10-22T11:56:12Z</time>
      </trkpt>
      <trkpt lat="43.59328" lon="6.54172">
        <ele>352.07</ele>
        <time>2013-10-22T11:56:30Z</time>
      </trkpt>
      <trkpt lat="43.5933" lon="6.54179">
        <ele>352.13</ele>
        <time>2013-10-22T11:57:00Z</time>
      </trkpt>
      <trkpt lat="43.59312" lon="6.54183">
        <ele>352.36</ele>
        <time>2013-10-22T11:57:09Z</time>
      </trkpt>
      <trkpt lat="43.59312" lon="6.54183">
        <ele>352.36</ele>
        <time>2013-10-22T11:57:09Z</time>
      </trkpt>
      <trkpt lat="43.59291" lon="6.54182">
        <ele>351.91</ele>
        <time>2013-10-22T11:57:35Z</time>
      </trkpt>
      <trkpt lat="43.59271" lon="6.54181">
        <ele>351.96</ele>
        <time>2013-10-22T11:57:51Z</time>
      </trkpt>
      <trkpt lat="43.59253" lon="6.54188">
        <ele>352.21</ele>
        <time>2013-10-22T11:58:05Z</time>
      </trkpt>
      <trkpt lat="43.59237" lon="6.54205">
        <ele>351.49</ele>
        <time>2013-10-22T11:58:21Z</time>
      </trkpt>
      <trkpt lat="43.59229" lon="6.54227">
        <ele>350.37</ele>
        <time>2013-10-22T11:58:33Z</time>
      </trkpt>
      <trkpt lat="43.5922" lon="6.54251">
        <ele>348.43</ele>
        <time>2013-10-22T11:58:49Z</time>
      </trkpt>
      <trkpt lat="43.59211" lon="6.54274">
        <ele>348.54</ele>
        <time>2013-10-22T11:59:05Z</time>
      </trkpt>
      <trkpt lat="43.59201" lon="6.54294">
        <ele>349.61</ele>
        <time>2013-10-22T11:59:19Z</time>
      </trkpt>
      <trkpt lat="43.59187" lon="6.54314">
        <ele>348</ele>
        <time>2013-10-22T11:59:37Z</time>
      </trkpt>
      <trkpt lat="43.59179" lon="6.54337">
        <ele>346.33</ele>
        <time>2013-10-22T11:59:53Z</time>
      </trkpt>
      <trkpt lat="43.59172" lon="6.54362">
        <ele>347</ele>
        <time>2013-10-22T12:00:11Z</time>
      </trkpt>
      <trkpt lat="43.59161" lon="6.54385">
        <ele>348.36</ele>
        <time>2013-10-22T12:00:29Z</time>
      </trkpt>
      <trkpt lat="43.59161" lon="6.54385">
        <ele>348.36</ele>
        <time>2013-10-22T12:00:29Z</time>
      </trkpt>
      <trkpt lat="43.59152" lon="6.54409">
        <ele>349.24</ele>
        <time>2013-10-22T12:00:49Z</time>
      </trkpt>
      <trkpt lat="43.59141" lon="6.54429">
        <ele>350.07</ele>
        <time>2013-10-22T12:01:09Z</time>
      </trkpt>
      <trkpt lat="43.59129" lon="6.54449">
        <ele>353.09</ele>
        <time>2013-10-22T12:01:59Z</time>
      </trkpt>
      <trkpt lat="43.59119" lon="6.54472">
        <ele>354.51</ele>
        <time>2013-10-22T12:02:17Z</time>
      </trkpt>
      <trkpt lat="43.59109" lon="6.54494">
        <ele>354.92</ele>
        <time>2013-10-22T12:02:35Z</time>
      </trkpt>
      <trkpt lat="43.59094" lon="6.54512">
        <ele>356.08</ele>
        <time>2013-10-22T12:02:53Z</time>
      </trkpt>
      <trkpt lat="43.59078" lon="6.54526">
        <ele>357.35</ele>
        <time>2013-10-22T12:03:07Z</time>
      </trkpt>
      <trkpt lat="43.59065" lon="6.54545">
        <ele>357.29</ele>
        <time>2013-10-22T12:03:39Z</time>
      </trkpt>
      <trkpt lat="43.59052" lon="6.54562">
        <ele>357.2</ele>
        <time>2013-10-22T12:03:53Z</time>
      </trkpt>
      <trkpt lat="43.59051" lon="6.54588">
        <ele>356.16</ele>
        <time>2013-10-22T12:04:07Z</time>
      </trkpt>
      <trkpt lat="43.59055" lon="6.54614">
        <ele>354.87</ele>
        <time>2013-10-22T12:04:23Z</time>
      </trkpt>
      <trkpt lat="43.59048" lon="6.54638">
        <ele>353.68</ele>
        <time>2013-10-22T12:04:39Z</time>
      </trkpt>
      <trkpt lat="43.59042" lon="6.54661">
        <ele>353.89</ele>
        <time>2013-10-22T12:04:57Z</time>
      </trkpt>
      <trkpt lat="43.59038" lon="6.54686">
        <ele>354.22</ele>
        <time>2013-10-22T12:05:27Z</time>
      </trkpt>
      <trkpt lat="43.59041" lon="6.54711">
        <ele>354.83</ele>
        <time>2013-10-22T12:05:45Z</time>
      </trkpt>
      <trkpt lat="43.59053" lon="6.54733">
        <ele>355.15</ele>
        <time>2013-10-22T12:06:05Z</time>
      </trkpt>
      <trkpt lat="43.5905" lon="6.54763">
        <ele>356.09</ele>
        <time>2013-10-22T12:06:24Z</time>
      </trkpt>
      <trkpt lat="43.5905" lon="6.54763">
        <ele>356.09</ele>
        <time>2013-10-22T12:06:24Z</time>
      </trkpt>
      <trkpt lat="43.59034" lon="6.54846">
        <ele>361.77</ele>
        <time>2013-10-22T12:07:31Z</time>
      </trkpt>
      <trkpt lat="43.59022" lon="6.54868">
        <ele>363.08</ele>
        <time>2013-10-22T12:07:57Z</time>
      </trkpt>
      <trkpt lat="43.59013" lon="6.54892">
        <ele>363.04</ele>
        <time>2013-10-22T12:08:23Z</time>
      </trkpt>
      <trkpt lat="43.59004" lon="6.54916">
        <ele>363.53</ele>
        <time>2013-10-22T12:08:45Z</time>
      </trkpt>
      <trkpt lat="43.58992" lon="6.54936">
        <ele>364.46</ele>
        <time>2013-10-22T12:09:13Z</time>
      </trkpt>
      <trkpt lat="43.58992" lon="6.54936">
        <ele>364.46</ele>
        <time>2013-10-22T12:09:13Z</time>
      </trkpt>
      <trkpt lat="43.58988" lon="6.54965">
        <ele>367.57</ele>
        <time>2013-10-22T12:10:45Z</time>
      </trkpt>
      <trkpt lat="43.58989" lon="6.54995">
        <ele>369.21</ele>
        <time>2013-10-22T12:11:07Z</time>
      </trkpt>
      <trkpt lat="43.58988" lon="6.5502">
        <ele>368.93</ele>
        <time>2013-10-22T12:11:21Z</time>
      </trkpt>
      <trkpt lat="43.58986" lon="6.55046">
        <ele>368.35</ele>
        <time>2013-10-22T12:11:35Z</time>
      </trkpt>
      <trkpt lat="43.58975" lon="6.55069">
        <ele>367.98</ele>
        <time>2013-10-22T12:11:49Z</time>
      </trkpt>
      <trkpt lat="43.58962" lon="6.55087">
        <ele>367.24</ele>
        <time>2013-10-22T12:12:03Z</time>
      </trkpt>
      <trkpt lat="43.58949" lon="6.55106">
        <ele>365.73</ele>
        <time>2013-10-22T12:12:17Z</time>
      </trkpt>
      <trkpt lat="43.58949" lon="6.55106">
        <ele>365.73</ele>
        <time>2013-10-22T12:12:17Z</time>
      </trkpt>
      <trkpt lat="43.5893" lon="6.55134">
        <ele>364.26</ele>
        <time>2013-10-22T12:12:44Z</time>
      </trkpt>
      <trkpt lat="43.58912" lon="6.55144">
        <ele>364.09</ele>
        <time>2013-10-22T12:12:55Z</time>
      </trkpt>
      <trkpt lat="43.58894" lon="6.55146">
        <ele>361.53</ele>
        <time>2013-10-22T12:13:13Z</time>
      </trkpt>
      <trkpt lat="43.58888" lon="6.55132">
        <ele>357.03</ele>
        <time>2013-10-22T12:13:53Z</time>
      </trkpt>
      <trkpt lat="43.58875" lon="6.55129">
        <ele>357.31</ele>
        <time>2013-10-22T12:14:15Z</time>
      </trkpt>
      <trkpt lat="43.58856" lon="6.55126">
        <ele>359.36</ele>
        <time>2013-10-22T12:14:33Z</time>
      </trkpt>
      <trkpt lat="43.58871" lon="6.55171">
        <ele>367.26</ele>
        <time>2013-10-22T12:15:55Z</time>
      </trkpt>
      <trkpt lat="43.58876" lon="6.55196">
        <ele>368.8</ele>
        <time>2013-10-22T12:16:37Z</time>
      </trkpt>
      <trkpt lat="43.58873" lon="6.55202">
        <ele>370.17</ele>
        <time>2013-10-22T12:17:45Z</time>
      </trkpt>
      <trkpt lat="43.58875" lon="6.55227">
        <ele>370.26</ele>
        <time>2013-10-22T12:18:17Z</time>
      </trkpt>
      <trkpt lat="43.58875" lon="6.55227">
        <ele>370.26</ele>
        <time>2013-10-22T12:18:17Z</time>
      </trkpt>
      <trkpt lat="43.58871" lon="6.55253">
        <ele>373.6</ele>
        <time>2013-10-22T12:18:39Z</time>
      </trkpt>
      <trkpt lat="43.58873" lon="6.55278">
        <ele>378.15</ele>
        <time>2013-10-22T12:19:07Z</time>
      </trkpt>
      <trkpt lat="43.58873" lon="6.55312">
        <ele>381.99</ele>
        <time>2013-10-22T12:19:45Z</time>
      </trkpt>
      <trkpt lat="43.58871" lon="6.55316">
        <ele>386.36</ele>
        <time>2013-10-22T12:21:23Z</time>
      </trkpt>
      <trkpt lat="43.58871" lon="6.55316">
        <ele>386.36</ele>
        <time>2013-10-22T12:21:23Z</time>
      </trkpt>
      <trkpt lat="43.58875" lon="6.55314">
        <ele>385.33</ele>
        <time>2013-10-22T12:21:49Z</time>
      </trkpt>
      <trkpt lat="43.58871" lon="6.55339">
        <ele>391.29</ele>
        <time>2013-10-22T12:22:55Z</time>
      </trkpt>
      <trkpt lat="43.58858" lon="6.55319">
        <ele>398.29</ele>
        <time>2013-10-22T12:24:10Z</time>
      </trkpt>
      <trkpt lat="43.58858" lon="6.55319">
        <ele>398.29</ele>
        <time>2013-10-22T12:24:10Z</time>
      </trkpt>
      <trkpt lat="43.58847" lon="6.55299">
        <ele>399.94</ele>
        <time>2013-10-22T12:24:38Z</time>
      </trkpt>
      <trkpt lat="43.58834" lon="6.5528">
        <ele>403.92</ele>
        <time>2013-10-22T12:25:12Z</time>
      </trkpt>
      <trkpt lat="43.58835" lon="6.5528">
        <ele>404.59</ele>
        <time>2013-10-22T12:25:30Z</time>
      </trkpt>
      <trkpt lat="43.58825" lon="6.55259">
        <ele>409.25</ele>
        <time>2013-10-22T12:26:58Z</time>
      </trkpt>
      <trkpt lat="43.5881" lon="6.55243">
        <ele>410.42</ele>
        <time>2013-10-22T12:27:28Z</time>
      </trkpt>
      <trkpt lat="43.5881" lon="6.55243">
        <ele>410.42</ele>
        <time>2013-10-22T12:27:28Z</time>
      </trkpt>
      <trkpt lat="43.58803" lon="6.55267">
        <ele>416.95</ele>
        <time>2013-10-22T12:28:16Z</time>
      </trkpt>
      <trkpt lat="43.58805" lon="6.55293">
        <ele>420.48</ele>
        <time>2013-10-22T12:28:42Z</time>
      </trkpt>
      <trkpt lat="43.58807" lon="6.55308">
        <ele>422.63</ele>
        <time>2013-10-22T12:29:43Z</time>
      </trkpt>
      <trkpt lat="43.58809" lon="6.55305">
        <ele>423.69</ele>
        <time>2013-10-22T12:30:15Z</time>
      </trkpt>
      <trkpt lat="43.58809" lon="6.55305">
        <ele>423.69</ele>
        <time>2013-10-22T12:30:15Z</time>
      </trkpt>
      <trkpt lat="43.58807" lon="6.55307">
        <ele>424.66</ele>
        <time>2013-10-22T12:30:39Z</time>
      </trkpt>
      <trkpt lat="43.58806" lon="6.55333">
        <ele>424.49</ele>
        <time>2013-10-22T12:31:15Z</time>
      </trkpt>
      <trkpt lat="43.58803" lon="6.55359">
        <ele>429.02</ele>
        <time>2013-10-22T12:31:45Z</time>
      </trkpt>
      <trkpt lat="43.58784" lon="6.5536">
        <ele>435.99</ele>
        <time>2013-10-22T12:32:59Z</time>
      </trkpt>
      <trkpt lat="43.5877" lon="6.55375">
        <ele>439.26</ele>
        <time>2013-10-22T12:33:29Z</time>
      </trkpt>
      <trkpt lat="43.5877" lon="6.55375">
        <ele>439.26</ele>
        <time>2013-10-22T12:33:29Z</time>
      </trkpt>
      <trkpt lat="43.58754" lon="6.55392">
        <ele>442.81</ele>
        <time>2013-10-22T12:33:55Z</time>
      </trkpt>
      <trkpt lat="43.58746" lon="6.55416">
        <ele>444.82</ele>
        <time>2013-10-22T12:34:19Z</time>
      </trkpt>
      <trkpt lat="43.58742" lon="6.55417">
        <ele>446.38</ele>
        <time>2013-10-22T12:35:23Z</time>
      </trkpt>
      <trkpt lat="43.58742" lon="6.55417">
        <ele>446.38</ele>
        <time>2013-10-22T12:35:23Z</time>
      </trkpt>
      <trkpt lat="43.58723" lon="6.55402">
        <ele>474.22</ele>
        <time>2013-10-22T12:37:54Z</time>
      </trkpt>
      <trkpt lat="43.58733" lon="6.55419">
        <ele>465.27</ele>
        <time>2013-10-22T12:38:52Z</time>
      </trkpt>
      <trkpt lat="43.58726" lon="6.5541">
        <ele>459.33</ele>
        <time>2013-10-22T12:39:32Z</time>
      </trkpt>
      <trkpt lat="43.58726" lon="6.5541">
        <ele>459.33</ele>
        <time>2013-10-22T12:39:32Z</time>
      </trkpt>
      <trkpt lat="43.58732" lon="6.55404">
        <ele>451.58</ele>
        <time>2013-10-22T12:44:25Z</time>
      </trkpt>
      <trkpt lat="43.5873" lon="6.55407">
        <ele>451.37</ele>
        <time>2013-10-22T12:45:04Z</time>
      </trkpt>
      <trkpt lat="43.5873" lon="6.55407">
        <ele>451.37</ele>
        <time>2013-10-22T12:45:04Z</time>
      </trkpt>
      <trkpt lat="43.58727" lon="6.55411">
        <ele>450.9</ele>
        <time>2013-10-22T12:45:36Z</time>
      </trkpt>
      <trkpt lat="43.58745" lon="6.55407">
        <ele>449.1</ele>
        <time>2013-10-22T12:46:04Z</time>
      </trkpt>
      <trkpt lat="43.58734" lon="6.55387">
        <ele>445.1</ele>
        <time>2013-10-22T12:46:50Z</time>
      </trkpt>
      <trkpt lat="43.58719" lon="6.554">
        <ele>446.28</ele>
        <time>2013-10-22T12:47:12Z</time>
      </trkpt>
      <trkpt lat="43.58706" lon="6.55419">
        <ele>445.08</ele>
        <time>2013-10-22T12:47:34Z</time>
      </trkpt>
      <trkpt lat="43.58696" lon="6.55442">
        <ele>442.45</ele>
        <time>2013-10-22T12:47:56Z</time>
      </trkpt>
      <trkpt lat="43.58686" lon="6.55465">
        <ele>440.28</ele>
        <time>2013-10-22T12:48:20Z</time>
      </trkpt>
      <trkpt lat="43.58686" lon="6.55465">
        <ele>440.28</ele>
        <time>2013-10-22T12:48:20Z</time>
      </trkpt>
      <trkpt lat="43.58681" lon="6.55489">
        <ele>439.91</ele>
        <time>2013-10-22T12:48:48Z</time>
      </trkpt>
      <trkpt lat="43.58689" lon="6.55507">
        <ele>440.76</ele>
        <time>2013-10-22T12:49:25Z</time>
      </trkpt>
      <trkpt lat="43.58697" lon="6.55533">
        <ele>438.89</ele>
        <time>2013-10-22T12:49:43Z</time>
      </trkpt>
      <trkpt lat="43.58708" lon="6.55554">
        <ele>435.53</ele>
        <time>2013-10-22T12:50:05Z</time>
      </trkpt>
      <trkpt lat="43.58721" lon="6.55575">
        <ele>432.4</ele>
        <time>2013-10-22T12:50:29Z</time>
      </trkpt>
      <trkpt lat="43.5873" lon="6.55597">
        <ele>430.81</ele>
        <time>2013-10-22T12:50:49Z</time>
      </trkpt>
      <trkpt lat="43.58737" lon="6.55621">
        <ele>428.18</ele>
        <time>2013-10-22T12:51:15Z</time>
      </trkpt>
      <trkpt lat="43.58737" lon="6.55621">
        <ele>428.18</ele>
        <time>2013-10-22T12:51:15Z</time>
      </trkpt>
      <trkpt lat="43.58745" lon="6.55643">
        <ele>425.61</ele>
        <time>2013-10-22T12:51:39Z</time>
      </trkpt>
      <trkpt lat="43.58765" lon="6.55645">
        <ele>423.62</ele>
        <time>2013-10-22T12:52:03Z</time>
      </trkpt>
      <trkpt lat="43.58783" lon="6.55645">
        <ele>421.63</ele>
        <time>2013-10-22T12:52:23Z</time>
      </trkpt>
      <trkpt lat="43.588" lon="6.55657">
        <ele>418.13</ele>
        <time>2013-10-22T12:52:51Z</time>
      </trkpt>
      <trkpt lat="43.58817" lon="6.5567">
        <ele>416.2</ele>
        <time>2013-10-22T12:53:11Z</time>
      </trkpt>
      <trkpt lat="43.58829" lon="6.55691">
        <ele>413.6</ele>
        <time>2013-10-22T12:53:31Z</time>
      </trkpt>
      <trkpt lat="43.58838" lon="6.55708">
        <ele>412.82</ele>
        <time>2013-10-22T12:54:27Z</time>
      </trkpt>
      <trkpt lat="43.58838" lon="6.55708">
        <ele>412.82</ele>
        <time>2013-10-22T12:54:27Z</time>
      </trkpt>
      <trkpt lat="43.58848" lon="6.5573">
        <ele>409.8</ele>
        <time>2013-10-22T12:55:01Z</time>
      </trkpt>
      <trkpt lat="43.58859" lon="6.5575">
        <ele>405.72</ele>
        <time>2013-10-22T12:55:17Z</time>
      </trkpt>
      <trkpt lat="43.58865" lon="6.55774">
        <ele>400.74</ele>
        <time>2013-10-22T12:56:16Z</time>
      </trkpt>
      <trkpt lat="43.58862" lon="6.55799">
        <ele>399.07</ele>
        <time>2013-10-22T12:56:42Z</time>
      </trkpt>
      <trkpt lat="43.58862" lon="6.55829">
        <ele>398.6</ele>
        <time>2013-10-22T12:57:06Z</time>
      </trkpt>
      <trkpt lat="43.58862" lon="6.55829">
        <ele>398.6</ele>
        <time>2013-10-22T12:57:06Z</time>
      </trkpt>
      <trkpt lat="43.58834" lon="6.55877">
        <ele>387.11</ele>
        <time>2013-10-22T12:58:46Z</time>
      </trkpt>
      <trkpt lat="43.58832" lon="6.55903">
        <ele>392.16</ele>
        <time>2013-10-22T12:59:10Z</time>
      </trkpt>
      <trkpt lat="43.58829" lon="6.55929">
        <ele>393.65</ele>
        <time>2013-10-22T12:59:30Z</time>
      </trkpt>
      <trkpt lat="43.58827" lon="6.55955">
        <ele>395.97</ele>
        <time>2013-10-22T12:59:48Z</time>
      </trkpt>
      <trkpt lat="43.58829" lon="6.5598">
        <ele>398.16</ele>
        <time>2013-10-22T13:00:08Z</time>
      </trkpt>
      <trkpt lat="43.58829" lon="6.5598">
        <ele>398.16</ele>
        <time>2013-10-22T13:00:08Z</time>
      </trkpt>
      <trkpt lat="43.58821" lon="6.56005">
        <ele>401.54</ele>
        <time>2013-10-22T13:00:45Z</time>
      </trkpt>
      <trkpt lat="43.58816" lon="6.56029">
        <ele>403.03</ele>
        <time>2013-10-22T13:01:03Z</time>
      </trkpt>
      <trkpt lat="43.58809" lon="6.56053">
        <ele>404.65</ele>
        <time>2013-10-22T13:01:23Z</time>
      </trkpt>
      <trkpt lat="43.58804" lon="6.56078">
        <ele>406.14</ele>
        <time>2013-10-22T13:01:45Z</time>
      </trkpt>
      <trkpt lat="43.58799" lon="6.56082">
        <ele>407.28</ele>
        <time>2013-10-22T13:02:08Z</time>
      </trkpt>
      <trkpt lat="43.58789" lon="6.56106">
        <ele>408.55</ele>
        <time>2013-10-22T13:02:39Z</time>
      </trkpt>
      <trkpt lat="43.58773" lon="6.56123">
        <ele>408.07</ele>
        <time>2013-10-22T13:02:53Z</time>
      </trkpt>
      <trkpt lat="43.58761" lon="6.56146">
        <ele>408.51</ele>
        <time>2013-10-22T13:03:07Z</time>
      </trkpt>
      <trkpt lat="43.58755" lon="6.5617">
        <ele>410.06</ele>
        <time>2013-10-22T13:03:19Z</time>
      </trkpt>
      <trkpt lat="43.5875" lon="6.5617">
        <ele>411.7</ele>
        <time>2013-10-22T13:03:39Z</time>
      </trkpt>
      <trkpt lat="43.58755" lon="6.56182">
        <ele>417.46</ele>
        <time>2013-10-22T13:04:32Z</time>
      </trkpt>
      <trkpt lat="43.58738" lon="6.56166">
        <ele>414.78</ele>
        <time>2013-10-22T13:05:06Z</time>
      </trkpt>
      <trkpt lat="43.5872" lon="6.5616">
        <ele>416.42</ele>
        <time>2013-10-22T13:05:28Z</time>
      </trkpt>
      <trkpt lat="43.58713" lon="6.56161">
        <ele>417.73</ele>
        <time>2013-10-22T13:06:16Z</time>
      </trkpt>
      <trkpt lat="43.58713" lon="6.56161">
        <ele>417.73</ele>
        <time>2013-10-22T13:06:16Z</time>
      </trkpt>
      <trkpt lat="43.58716" lon="6.56166">
        <ele>418.39</ele>
        <time>2013-10-22T13:07:12Z</time>
      </trkpt>
      <trkpt lat="43.58698" lon="6.56159">
        <ele>418.01</ele>
        <time>2013-10-22T13:07:36Z</time>
      </trkpt>
      <trkpt lat="43.58679" lon="6.56161">
        <ele>418.82</ele>
        <time>2013-10-22T13:08:00Z</time>
      </trkpt>
      <trkpt lat="43.5866" lon="6.56162">
        <ele>417.74</ele>
        <time>2013-10-22T13:08:48Z</time>
      </trkpt>
      <trkpt lat="43.5864" lon="6.56164">
        <ele>417.16</ele>
        <time>2013-10-22T13:09:10Z</time>
      </trkpt>
      <trkpt lat="43.5864" lon="6.56164">
        <ele>417.16</ele>
        <time>2013-10-22T13:09:10Z</time>
      </trkpt>
      <trkpt lat="43.58622" lon="6.5616">
        <ele>415.37</ele>
        <time>2013-10-22T13:09:40Z</time>
      </trkpt>
      <trkpt lat="43.58604" lon="6.56152">
        <ele>412.27</ele>
        <time>2013-10-22T13:10:22Z</time>
      </trkpt>
      <trkpt lat="43.58585" lon="6.56155">
        <ele>407.63</ele>
        <time>2013-10-22T13:11:14Z</time>
      </trkpt>
      <trkpt lat="43.58567" lon="6.56159">
        <ele>400.79</ele>
        <time>2013-10-22T13:12:04Z</time>
      </trkpt>
      <trkpt lat="43.58567" lon="6.56159">
        <ele>400.79</ele>
        <time>2013-10-22T13:12:04Z</time>
      </trkpt>
      <trkpt lat="43.58548" lon="6.56165">
        <ele>396.09</ele>
        <time>2013-10-22T13:12:40Z</time>
      </trkpt>
      <trkpt lat="43.58531" lon="6.56176">
        <ele>392.33</ele>
        <time>2013-10-22T13:13:12Z</time>
      </trkpt>
      <trkpt lat="43.58514" lon="6.56184">
        <ele>388.11</ele>
        <time>2013-10-22T13:13:48Z</time>
      </trkpt>
      <trkpt lat="43.58495" lon="6.56187">
        <ele>385.62</ele>
        <time>2013-10-22T13:14:20Z</time>
      </trkpt>
      <trkpt lat="43.58478" lon="6.56196">
        <ele>380.53</ele>
        <time>2013-10-22T13:14:50Z</time>
      </trkpt>
      <trkpt lat="43.58458" lon="6.56197">
        <ele>376.28</ele>
        <time>2013-10-22T13:15:18Z</time>
      </trkpt>
      <trkpt lat="43.58458" lon="6.56197">
        <ele>376.28</ele>
        <time>2013-10-22T13:15:18Z</time>
      </trkpt>
      <trkpt lat="43.58449" lon="6.5619">
        <ele>374.21</ele>
        <time>2013-10-22T13:15:48Z</time>
      </trkpt>
      <trkpt lat="43.58448" lon="6.56189">
        <ele>374.18</ele>
        <time>2013-10-22T13:16:08Z</time>
      </trkpt>
      <trkpt lat="43.58431" lon="6.56182">
        <ele>372.11</ele>
        <time>2013-10-22T13:16:48Z</time>
      </trkpt>
      <trkpt lat="43.58412" lon="6.56178">
        <ele>370.04</ele>
        <time>2013-10-22T13:17:14Z</time>
      </trkpt>
      <trkpt lat="43.58393" lon="6.56174">
        <ele>367.09</ele>
        <time>2013-10-22T13:17:36Z</time>
      </trkpt>
      <trkpt lat="43.58374" lon="6.56177">
        <ele>364.75</ele>
        <time>2013-10-22T13:17:56Z</time>
      </trkpt>
      <trkpt lat="43.58357" lon="6.56185">
        <ele>363.46</ele>
        <time>2013-10-22T13:18:20Z</time>
      </trkpt>
      <trkpt lat="43.58357" lon="6.56185">
        <ele>363.46</ele>
        <time>2013-10-22T13:18:20Z</time>
      </trkpt>
      <trkpt lat="43.58339" lon="6.56187">
        <ele>360.3</ele>
        <time>2013-10-22T13:18:48Z</time>
      </trkpt>
      <trkpt lat="43.5832" lon="6.5619">
        <ele>356.51</ele>
        <time>2013-10-22T13:19:36Z</time>
      </trkpt>
      <trkpt lat="43.58303" lon="6.56198">
        <ele>353.54</ele>
        <time>2013-10-22T13:19:58Z</time>
      </trkpt>
      <trkpt lat="43.58285" lon="6.56203">
        <ele>351.41</ele>
        <time>2013-10-22T13:20:22Z</time>
      </trkpt>
      <trkpt lat="43.58266" lon="6.56206">
        <ele>349.16</ele>
        <time>2013-10-22T13:20:48Z</time>
      </trkpt>
      <trkpt lat="43.58247" lon="6.56206">
        <ele>348.13</ele>
        <time>2013-10-22T13:21:10Z</time>
      </trkpt>
      <trkpt lat="43.58247" lon="6.56206">
        <ele>348.13</ele>
        <time>2013-10-22T13:21:10Z</time>
      </trkpt>
      <trkpt lat="43.58228" lon="6.56211">
        <ele>344.61</ele>
        <time>2013-10-22T13:21:36Z</time>
      </trkpt>
      <trkpt lat="43.58212" lon="6.56223">
        <ele>341.55</ele>
        <time>2013-10-22T13:21:56Z</time>
      </trkpt>
      <trkpt lat="43.582" lon="6.56242">
        <ele>340.82</ele>
        <time>2013-10-22T13:22:14Z</time>
      </trkpt>
      <trkpt lat="43.58187" lon="6.56261">
        <ele>340.63</ele>
        <time>2013-10-22T13:22:34Z</time>
      </trkpt>
      <trkpt lat="43.58168" lon="6.56253">
        <ele>337.98</ele>
        <time>2013-10-22T13:22:58Z</time>
      </trkpt>
      <trkpt lat="43.58153" lon="6.56238">
        <ele>337.01</ele>
        <time>2013-10-22T13:23:14Z</time>
      </trkpt>
      <trkpt lat="43.58137" lon="6.56226">
        <ele>335.11</ele>
        <time>2013-10-22T13:23:36Z</time>
      </trkpt>
      <trkpt lat="43.5812" lon="6.56217">
        <ele>333.69</ele>
        <time>2013-10-22T13:23:56Z</time>
      </trkpt>
      <trkpt lat="43.58102" lon="6.56202">
        <ele>329.91</ele>
        <time>2013-10-22T13:24:22Z</time>
      </trkpt>
      <trkpt lat="43.58102" lon="6.56202">
        <ele>329.91</ele>
        <time>2013-10-22T13:24:22Z</time>
      </trkpt>
      <trkpt lat="43.58086" lon="6.56188">
        <ele>328.14</ele>
        <time>2013-10-22T13:24:42Z</time>
      </trkpt>
      <trkpt lat="43.58069" lon="6.5618">
        <ele>325.06</ele>
        <time>2013-10-22T13:25:08Z</time>
      </trkpt>
      <trkpt lat="43.5805" lon="6.56173">
        <ele>320</ele>
        <time>2013-10-22T13:25:34Z</time>
      </trkpt>
      <trkpt lat="43.58033" lon="6.56165">
        <ele>315.4</ele>
        <time>2013-10-22T13:26:00Z</time>
      </trkpt>
      <trkpt lat="43.58037" lon="6.56166">
        <ele>314.72</ele>
        <time>2013-10-22T13:26:46Z</time>
      </trkpt>
      <trkpt lat="43.58034" lon="6.56169">
        <ele>314.35</ele>
        <time>2013-10-22T13:27:08Z</time>
      </trkpt>
      <trkpt lat="43.58034" lon="6.56169">
        <ele>314.35</ele>
        <time>2013-10-22T13:27:08Z</time>
      </trkpt>
      <trkpt lat="43.58034" lon="6.56167">
        <ele>313.68</ele>
        <time>2013-10-22T13:27:42Z</time>
      </trkpt>
      <trkpt lat="43.5803" lon="6.56167">
        <ele>310.19</ele>
        <time>2013-10-22T13:28:40Z</time>
      </trkpt>
      <trkpt lat="43.58027" lon="6.56192">
        <ele>310.28</ele>
        <time>2013-10-22T13:29:12Z</time>
      </trkpt>
      <trkpt lat="43.58025" lon="6.56219">
        <ele>310</ele>
        <time>2013-10-22T13:29:30Z</time>
      </trkpt>
      <trkpt lat="43.5802" lon="6.56245">
        <ele>310.94</ele>
        <time>2013-10-22T13:29:56Z</time>
      </trkpt>
      <trkpt lat="43.58015" lon="6.56271">
        <ele>311.79</ele>
        <time>2013-10-22T13:30:26Z</time>
      </trkpt>
      <trkpt lat="43.58015" lon="6.56271">
        <ele>311.79</ele>
        <time>2013-10-22T13:30:26Z</time>
      </trkpt>
      <trkpt lat="43.58008" lon="6.56295">
        <ele>311.22</ele>
        <time>2013-10-22T13:30:50Z</time>
      </trkpt>
      <trkpt lat="43.58006" lon="6.56305">
        <ele>311.71</ele>
        <time>2013-10-22T13:31:40Z</time>
      </trkpt>
      <trkpt lat="43.57997" lon="6.56328">
        <ele>312.92</ele>
        <time>2013-10-22T13:31:52Z</time>
      </trkpt>
      <trkpt lat="43.5799" lon="6.56351">
        <ele>314.26</ele>
        <time>2013-10-22T13:32:08Z</time>
      </trkpt>
      <trkpt lat="43.57984" lon="6.56377">
        <ele>316.16</ele>
        <time>2013-10-22T13:32:24Z</time>
      </trkpt>
      <trkpt lat="43.57978" lon="6.56403">
        <ele>317.33</ele>
        <time>2013-10-22T13:32:42Z</time>
      </trkpt>
      <trkpt lat="43.57973" lon="6.56427">
        <ele>320.68</ele>
        <time>2013-10-22T13:33:04Z</time>
      </trkpt>
      <trkpt lat="43.57973" lon="6.56427">
        <ele>320.68</ele>
        <time>2013-10-22T13:33:04Z</time>
      </trkpt>
      <trkpt lat="43.5796" lon="6.56484">
        <ele>316.29</ele>
        <time>2013-10-22T13:34:49Z</time>
      </trkpt>
      <trkpt lat="43.57954" lon="6.56508">
        <ele>320.53</ele>
        <time>2013-10-22T13:35:05Z</time>
      </trkpt>
      <trkpt lat="43.57951" lon="6.56534">
        <ele>324.63</ele>
        <time>2013-10-22T13:35:23Z</time>
      </trkpt>
      <trkpt lat="43.57956" lon="6.56559">
        <ele>326.14</ele>
        <time>2013-10-22T13:35:43Z</time>
      </trkpt>
      <trkpt lat="43.57959" lon="6.56584">
        <ele>327.59</ele>
        <time>2013-10-22T13:36:03Z</time>
      </trkpt>
      <trkpt lat="43.57959" lon="6.56584">
        <ele>327.59</ele>
        <time>2013-10-22T13:36:03Z</time>
      </trkpt>
      <trkpt lat="43.57966" lon="6.5661">
        <ele>328.3</ele>
        <time>2013-10-22T13:36:37Z</time>
      </trkpt>
      <trkpt lat="43.57975" lon="6.56634">
        <ele>329.69</ele>
        <time>2013-10-22T13:37:05Z</time>
      </trkpt>
      <trkpt lat="43.57982" lon="6.56658">
        <ele>331</ele>
        <time>2013-10-22T13:37:29Z</time>
      </trkpt>
      <trkpt lat="43.57982" lon="6.56686">
        <ele>330.68</ele>
        <time>2013-10-22T13:37:49Z</time>
      </trkpt>
      <trkpt lat="43.57982" lon="6.56712">
        <ele>331.93</ele>
        <time>2013-10-22T13:38:09Z</time>
      </trkpt>
      <trkpt lat="43.57983" lon="6.56738">
        <ele>333.24</ele>
        <time>2013-10-22T13:38:29Z</time>
      </trkpt>
      <trkpt lat="43.57983" lon="6.56738">
        <ele>333.24</ele>
        <time>2013-10-22T13:38:29Z</time>
      </trkpt>
      <trkpt lat="43.57985" lon="6.56767">
        <ele>332.12</ele>
        <time>2013-10-22T13:39:43Z</time>
      </trkpt>
      <trkpt lat="43.57987" lon="6.56792">
        <ele>331.56</ele>
        <time>2013-10-22T13:39:59Z</time>
      </trkpt>
      <trkpt lat="43.57987" lon="6.56817">
        <ele>331.52</ele>
        <time>2013-10-22T13:40:15Z</time>
      </trkpt>
      <trkpt lat="43.57988" lon="6.56844">
        <ele>331.2</ele>
        <time>2013-10-22T13:40:33Z</time>
      </trkpt>
      <trkpt lat="43.57989" lon="6.56871">
        <ele>331.46</ele>
        <time>2013-10-22T13:40:50Z</time>
      </trkpt>
      <trkpt lat="43.57991" lon="6.56896">
        <ele>330.3</ele>
        <time>2013-10-22T13:41:08Z</time>
      </trkpt>
      <trkpt lat="43.57993" lon="6.56921">
        <ele>329.11</ele>
        <time>2013-10-22T13:41:26Z</time>
      </trkpt>
      <trkpt lat="43.57992" lon="6.56948">
        <ele>328.67</ele>
        <time>2013-10-22T13:41:44Z</time>
      </trkpt>
      <trkpt lat="43.57987" lon="6.56975">
        <ele>328.88</ele>
        <time>2013-10-22T13:42:06Z</time>
      </trkpt>
      <trkpt lat="43.57987" lon="6.56975">
        <ele>328.88</ele>
        <time>2013-10-22T13:42:06Z</time>
      </trkpt>
      <trkpt lat="43.57992" lon="6.57">
        <ele>327.43</ele>
        <time>2013-10-22T13:42:34Z</time>
      </trkpt>
      <trkpt lat="43.57992" lon="6.57028">
        <ele>326.33</ele>
        <time>2013-10-22T13:42:52Z</time>
      </trkpt>
      <trkpt lat="43.57993" lon="6.57053">
        <ele>324.48</ele>
        <time>2013-10-22T13:43:14Z</time>
      </trkpt>
      <trkpt lat="43.57993" lon="6.57081">
        <ele>323.63</ele>
        <time>2013-10-22T13:43:36Z</time>
      </trkpt>
      <trkpt lat="43.5799" lon="6.57107">
        <ele>321.79</ele>
        <time>2013-10-22T13:43:56Z</time>
      </trkpt>
      <trkpt lat="43.57986" lon="6.57132">
        <ele>319.5</ele>
        <time>2013-10-22T13:44:18Z</time>
      </trkpt>
      <trkpt lat="43.57979" lon="6.57157">
        <ele>317.63</ele>
        <time>2013-10-22T13:44:36Z</time>
      </trkpt>
      <trkpt lat="43.57974" lon="6.57182">
        <ele>317.31</ele>
        <time>2013-10-22T13:44:54Z</time>
      </trkpt>
      <trkpt lat="43.57967" lon="6.57204">
        <ele>317.49</ele>
        <time>2013-10-22T13:45:14Z</time>
      </trkpt>
      <trkpt lat="43.57958" lon="6.57228">
        <ele>318.53</ele>
        <time>2013-10-22T13:45:30Z</time>
      </trkpt>
      <trkpt lat="43.57958" lon="6.57228">
        <ele>318.53</ele>
        <time>2013-10-22T13:45:30Z</time>
      </trkpt>
      <trkpt lat="43.57951" lon="6.57252">
        <ele>318.73</ele>
        <time>2013-10-22T13:45:52Z</time>
      </trkpt>
      <trkpt lat="43.57952" lon="6.57278">
        <ele>317.6</ele>
        <time>2013-10-22T13:46:26Z</time>
      </trkpt>
      <trkpt lat="43.57959" lon="6.57302">
        <ele>317.05</ele>
        <time>2013-10-22T13:46:50Z</time>
      </trkpt>
      <trkpt lat="43.57963" lon="6.57327">
        <ele>319.05</ele>
        <time>2013-10-22T13:47:16Z</time>
      </trkpt>
      <trkpt lat="43.57974" lon="6.57349">
        <ele>321.02</ele>
        <time>2013-10-22T13:47:38Z</time>
      </trkpt>
      <trkpt lat="43.57982" lon="6.57372">
        <ele>323.73</ele>
        <time>2013-10-22T13:48:00Z</time>
      </trkpt>
      <trkpt lat="43.5799" lon="6.57396">
        <ele>325.11</ele>
        <time>2013-10-22T13:48:22Z</time>
      </trkpt>
      <trkpt lat="43.5799" lon="6.57396">
        <ele>325.11</ele>
        <time>2013-10-22T13:48:22Z</time>
      </trkpt>
      <trkpt lat="43.57996" lon="6.5742">
        <ele>327.51</ele>
        <time>2013-10-22T13:48:44Z</time>
      </trkpt>
      <trkpt lat="43.58003" lon="6.57443">
        <ele>331.08</ele>
        <time>2013-10-22T13:49:10Z</time>
      </trkpt>
      <trkpt lat="43.58008" lon="6.57468">
        <ele>333.52</ele>
        <time>2013-10-22T13:49:34Z</time>
      </trkpt>
      <trkpt lat="43.5801" lon="6.57493">
        <ele>335.68</ele>
        <time>2013-10-22T13:50:00Z</time>
      </trkpt>
      <trkpt lat="43.58017" lon="6.57517">
        <ele>335.28</ele>
        <time>2013-10-22T13:50:18Z</time>
      </trkpt>
      <trkpt lat="43.58027" lon="6.57526">
        <ele>336.95</ele>
        <time>2013-10-22T13:51:18Z</time>
      </trkpt>
      <trkpt lat="43.58027" lon="6.57526">
        <ele>336.95</ele>
        <time>2013-10-22T13:51:18Z</time>
      </trkpt>
      <trkpt lat="43.58027" lon="6.57526">
        <ele>337.4</ele>
        <time>2013-10-22T13:51:40Z</time>
      </trkpt>
      <trkpt lat="43.58029" lon="6.57532">
        <ele>341.61</ele>
        <time>2013-10-22T13:53:16Z</time>
      </trkpt>
      <trkpt lat="43.58027" lon="6.57527">
        <ele>340.1</ele>
        <time>2013-10-22T13:54:12Z</time>
      </trkpt>
      <trkpt lat="43.58027" lon="6.57527">
        <ele>340.1</ele>
        <time>2013-10-22T13:54:12Z</time>
      </trkpt>
      <trkpt lat="43.58036" lon="6.5755">
        <ele>339.91</ele>
        <time>2013-10-22T13:54:52Z</time>
      </trkpt>
      <trkpt lat="43.58053" lon="6.57576">
        <ele>340.49</ele>
        <time>2013-10-22T13:56:01Z</time>
      </trkpt>
      <trkpt lat="43.58067" lon="6.57593">
        <ele>341.79</ele>
        <time>2013-10-22T13:56:17Z</time>
      </trkpt>
      <trkpt lat="43.58081" lon="6.57612">
        <ele>344.63</ele>
        <time>2013-10-22T13:56:39Z</time>
      </trkpt>
      <trkpt lat="43.58092" lon="6.57632">
        <ele>345.23</ele>
        <time>2013-10-22T13:57:01Z</time>
      </trkpt>
      <trkpt lat="43.58102" lon="6.57654">
        <ele>348.61</ele>
        <time>2013-10-22T13:57:27Z</time>
      </trkpt>
      <trkpt lat="43.58102" lon="6.57654">
        <ele>348.61</ele>
        <time>2013-10-22T13:57:27Z</time>
      </trkpt>
      <trkpt lat="43.58114" lon="6.57673">
        <ele>352.99</ele>
        <time>2013-10-22T13:58:05Z</time>
      </trkpt>
      <trkpt lat="43.58125" lon="6.57694">
        <ele>355.99</ele>
        <time>2013-10-22T13:58:41Z</time>
      </trkpt>
      <trkpt lat="43.58136" lon="6.57718">
        <ele>358.94</ele>
        <time>2013-10-22T13:59:35Z</time>
      </trkpt>
      <trkpt lat="43.58144" lon="6.57741">
        <ele>360.44</ele>
        <time>2013-10-22T13:59:53Z</time>
      </trkpt>
      <trkpt lat="43.58153" lon="6.57763">
        <ele>363.04</ele>
        <time>2013-10-22T14:00:15Z</time>
      </trkpt>
      <trkpt lat="43.58153" lon="6.57763">
        <ele>363.04</ele>
        <time>2013-10-22T14:00:15Z</time>
      </trkpt>
      <trkpt lat="43.58171" lon="6.57768">
        <ele>366.29</ele>
        <time>2013-10-22T14:00:44Z</time>
      </trkpt>
      <trkpt lat="43.58181" lon="6.57747">
        <ele>367.51</ele>
        <time>2013-10-22T14:01:12Z</time>
      </trkpt>
      <trkpt lat="43.58185" lon="6.57721">
        <ele>367.5</ele>
        <time>2013-10-22T14:01:28Z</time>
      </trkpt>
      <trkpt lat="43.58188" lon="6.57694">
        <ele>367.49</ele>
        <time>2013-10-22T14:01:50Z</time>
      </trkpt>
      <trkpt lat="43.58194" lon="6.57669">
        <ele>366.94</ele>
        <time>2013-10-22T14:02:14Z</time>
      </trkpt>
      <trkpt lat="43.582" lon="6.57643">
        <ele>367.96</ele>
        <time>2013-10-22T14:02:34Z</time>
      </trkpt>
      <trkpt lat="43.58204" lon="6.57618">
        <ele>367.09</ele>
        <time>2013-10-22T14:02:56Z</time>
      </trkpt>
      <trkpt lat="43.58204" lon="6.57618">
        <ele>367.09</ele>
        <time>2013-10-22T14:02:56Z</time>
      </trkpt>
      <trkpt lat="43.58205" lon="6.57591">
        <ele>367.28</ele>
        <time>2013-10-22T14:03:50Z</time>
      </trkpt>
      <trkpt lat="43.58211" lon="6.57567">
        <ele>366.15</ele>
        <time>2013-10-22T14:04:14Z</time>
      </trkpt>
      <trkpt lat="43.58218" lon="6.57543">
        <ele>365.4</ele>
        <time>2013-10-22T14:04:32Z</time>
      </trkpt>
      <trkpt lat="43.58226" lon="6.57519">
        <ele>367.05</ele>
        <time>2013-10-22T14:05:00Z</time>
      </trkpt>
      <trkpt lat="43.58236" lon="6.57495">
        <ele>369.74</ele>
        <time>2013-10-22T14:05:24Z</time>
      </trkpt>
      <trkpt lat="43.58242" lon="6.5747">
        <ele>372.67</ele>
        <time>2013-10-22T14:05:44Z</time>
      </trkpt>
      <trkpt lat="43.58252" lon="6.57447">
        <ele>377.27</ele>
        <time>2013-10-22T14:06:12Z</time>
      </trkpt>
      <trkpt lat="43.58252" lon="6.57447">
        <ele>377.27</ele>
        <time>2013-10-22T14:06:12Z</time>
      </trkpt>
      <trkpt lat="43.58264" lon="6.57428">
        <ele>379.65</ele>
        <time>2013-10-22T14:06:38Z</time>
      </trkpt>
      <trkpt lat="43.58275" lon="6.57401">
        <ele>381.7</ele>
        <time>2013-10-22T14:07:00Z</time>
      </trkpt>
      <trkpt lat="43.58286" lon="6.5738">
        <ele>384.37</ele>
        <time>2013-10-22T14:07:18Z</time>
      </trkpt>
      <trkpt lat="43.58293" lon="6.57381">
        <ele>386.32</ele>
        <time>2013-10-22T14:09:06Z</time>
      </trkpt>
      <trkpt lat="43.58308" lon="6.57365">
        <ele>387.95</ele>
        <time>2013-10-22T14:09:28Z</time>
      </trkpt>
      <trkpt lat="43.58308" lon="6.57365">
        <ele>387.95</ele>
        <time>2013-10-22T14:09:28Z</time>
      </trkpt>
      <trkpt lat="43.58322" lon="6.57349">
        <ele>388.07</ele>
        <time>2013-10-22T14:09:44Z</time>
      </trkpt>
      <trkpt lat="43.58335" lon="6.57329">
        <ele>388.79</ele>
        <time>2013-10-22T14:10:02Z</time>
      </trkpt>
      <trkpt lat="43.58341" lon="6.57306">
        <ele>390.07</ele>
        <time>2013-10-22T14:10:20Z</time>
      </trkpt>
      <trkpt lat="43.58344" lon="6.57279">
        <ele>389.55</ele>
        <time>2013-10-22T14:10:40Z</time>
      </trkpt>
      <trkpt lat="43.58347" lon="6.57254">
        <ele>387.83</ele>
        <time>2013-10-22T14:11:00Z</time>
      </trkpt>
      <trkpt lat="43.58344" lon="6.57227">
        <ele>388.07</ele>
        <time>2013-10-22T14:11:20Z</time>
      </trkpt>
      <trkpt lat="43.58339" lon="6.57203">
        <ele>387.33</ele>
        <time>2013-10-22T14:11:38Z</time>
      </trkpt>
      <trkpt lat="43.58342" lon="6.57178">
        <ele>385.44</ele>
        <time>2013-10-22T14:12:00Z</time>
      </trkpt>
      <trkpt lat="43.58346" lon="6.57152">
        <ele>386.05</ele>
        <time>2013-10-22T14:12:16Z</time>
      </trkpt>
      <trkpt lat="43.58346" lon="6.57152">
        <ele>386.05</ele>
        <time>2013-10-22T14:12:16Z</time>
      </trkpt>
      <trkpt lat="43.58354" lon="6.57127">
        <ele>388.51</ele>
        <time>2013-10-22T14:12:36Z</time>
      </trkpt>
      <trkpt lat="43.58367" lon="6.57109">
        <ele>390.33</ele>
        <time>2013-10-22T14:13:00Z</time>
      </trkpt>
      <trkpt lat="43.5838" lon="6.57091">
        <ele>389.66</ele>
        <time>2013-10-22T14:13:18Z</time>
      </trkpt>
      <trkpt lat="43.58397" lon="6.5708">
        <ele>390.76</ele>
        <time>2013-10-22T14:13:42Z</time>
      </trkpt>
      <trkpt lat="43.58414" lon="6.57067">
        <ele>393.33</ele>
        <time>2013-10-22T14:14:04Z</time>
      </trkpt>
      <trkpt lat="43.58433" lon="6.57066">
        <ele>396.93</ele>
        <time>2013-10-22T14:14:24Z</time>
      </trkpt>
      <trkpt lat="43.58451" lon="6.57066">
        <ele>400.09</ele>
        <time>2013-10-22T14:14:56Z</time>
      </trkpt>
      <trkpt lat="43.58469" lon="6.5706">
        <ele>401.58</ele>
        <time>2013-10-22T14:15:16Z</time>
      </trkpt>
      <trkpt lat="43.58469" lon="6.5706">
        <ele>401.58</ele>
        <time>2013-10-22T14:15:16Z</time>
      </trkpt>
      <trkpt lat="43.58487" lon="6.57052">
        <ele>398.92</ele>
        <time>2013-10-22T14:16:00Z</time>
      </trkpt>
      <trkpt lat="43.58505" lon="6.57041">
        <ele>400.16</ele>
        <time>2013-10-22T14:16:26Z</time>
      </trkpt>
      <trkpt lat="43.58523" lon="6.57035">
        <ele>401.02</ele>
        <time>2013-10-22T14:16:46Z</time>
      </trkpt>
      <trkpt lat="43.58536" lon="6.57032">
        <ele>400.52</ele>
        <time>2013-10-22T14:17:34Z</time>
      </trkpt>
      <trkpt lat="43.58555" lon="6.57025">
        <ele>400.45</ele>
        <time>2013-10-22T14:17:50Z</time>
      </trkpt>
      <trkpt lat="43.58573" lon="6.57019">
        <ele>401.31</ele>
        <time>2013-10-22T14:18:06Z</time>
      </trkpt>
      <trkpt lat="43.5859" lon="6.57013">
        <ele>403.51</ele>
        <time>2013-10-22T14:18:29Z</time>
      </trkpt>
      <trkpt lat="43.5859" lon="6.57013">
        <ele>403.51</ele>
        <time>2013-10-22T14:18:29Z</time>
      </trkpt>
      <trkpt lat="43.58605" lon="6.56996">
        <ele>403.74</ele>
        <time>2013-10-22T14:19:09Z</time>
      </trkpt>
      <trkpt lat="43.58616" lon="6.56977">
        <ele>405.06</ele>
        <time>2013-10-22T14:19:31Z</time>
      </trkpt>
      <trkpt lat="43.58629" lon="6.56957">
        <ele>407.92</ele>
        <time>2013-10-22T14:19:59Z</time>
      </trkpt>
      <trkpt lat="43.58643" lon="6.5694">
        <ele>409.14</ele>
        <time>2013-10-22T14:20:35Z</time>
      </trkpt>
      <trkpt lat="43.58657" lon="6.56923">
        <ele>410.77</ele>
        <time>2013-10-22T14:21:11Z</time>
      </trkpt>
      <trkpt lat="43.58657" lon="6.56923">
        <ele>410.77</ele>
        <time>2013-10-22T14:21:11Z</time>
      </trkpt>
      <trkpt lat="43.58671" lon="6.56906">
        <ele>409.77</ele>
        <time>2013-10-22T14:21:39Z</time>
      </trkpt>
      <trkpt lat="43.58686" lon="6.56892">
        <ele>411.51</ele>
        <time>2013-10-22T14:22:05Z</time>
      </trkpt>
      <trkpt lat="43.58691" lon="6.56892">
        <ele>411.77</ele>
        <time>2013-10-22T14:22:47Z</time>
      </trkpt>
      <trkpt lat="43.58706" lon="6.56878">
        <ele>414.64</ele>
        <time>2013-10-22T14:23:13Z</time>
      </trkpt>
      <trkpt lat="43.5872" lon="6.5686">
        <ele>415.47</ele>
        <time>2013-10-22T14:23:29Z</time>
      </trkpt>
      <trkpt lat="43.58729" lon="6.56837">
        <ele>417.34</ele>
        <time>2013-10-22T14:23:51Z</time>
      </trkpt>
      <trkpt lat="43.58729" lon="6.56837">
        <ele>417.34</ele>
        <time>2013-10-22T14:23:51Z</time>
      </trkpt>
      <trkpt lat="43.58737" lon="6.56793">
        <ele>420.11</ele>
        <time>2013-10-22T14:24:48Z</time>
      </trkpt>
      <trkpt lat="43.58739" lon="6.56765">
        <ele>420.18</ele>
        <time>2013-10-22T14:25:06Z</time>
      </trkpt>
      <trkpt lat="43.58739" lon="6.5674">
        <ele>420.89</ele>
        <time>2013-10-22T14:25:24Z</time>
      </trkpt>
      <trkpt lat="43.58741" lon="6.56714">
        <ele>420.72</ele>
        <time>2013-10-22T14:25:40Z</time>
      </trkpt>
      <trkpt lat="43.58744" lon="6.56689">
        <ele>421.4</ele>
        <time>2013-10-22T14:25:58Z</time>
      </trkpt>
      <trkpt lat="43.58745" lon="6.56661">
        <ele>421.67</ele>
        <time>2013-10-22T14:26:12Z</time>
      </trkpt>
      <trkpt lat="43.58746" lon="6.56636">
        <ele>421.28</ele>
        <time>2013-10-22T14:26:32Z</time>
      </trkpt>
      <trkpt lat="43.58744" lon="6.5661">
        <ele>421.27</ele>
        <time>2013-10-22T14:26:54Z</time>
      </trkpt>
      <trkpt lat="43.58749" lon="6.56586">
        <ele>421.57</ele>
        <time>2013-10-22T14:27:18Z</time>
      </trkpt>
      <trkpt lat="43.58749" lon="6.56586">
        <ele>421.57</ele>
        <time>2013-10-22T14:27:18Z</time>
      </trkpt>
      <trkpt lat="43.58754" lon="6.56561">
        <ele>422.82</ele>
        <time>2013-10-22T14:27:38Z</time>
      </trkpt>
      <trkpt lat="43.58758" lon="6.56536">
        <ele>424.08</ele>
        <time>2013-10-22T14:28:04Z</time>
      </trkpt>
      <trkpt lat="43.58757" lon="6.56511">
        <ele>424.72</ele>
        <time>2013-10-22T14:28:24Z</time>
      </trkpt>
      <trkpt lat="43.58763" lon="6.56486">
        <ele>425.73</ele>
        <time>2013-10-22T14:28:44Z</time>
      </trkpt>
      <trkpt lat="43.58765" lon="6.5646">
        <ele>426.55</ele>
        <time>2013-10-22T14:29:02Z</time>
      </trkpt>
      <trkpt lat="43.5877" lon="6.56434">
        <ele>426.41</ele>
        <time>2013-10-22T14:29:26Z</time>
      </trkpt>
      <trkpt lat="43.58774" lon="6.56408">
        <ele>426.51</ele>
        <time>2013-10-22T14:29:40Z</time>
      </trkpt>
      <trkpt lat="43.58778" lon="6.56382">
        <ele>427.36</ele>
        <time>2013-10-22T14:30:00Z</time>
      </trkpt>
      <trkpt lat="43.58778" lon="6.56382">
        <ele>427.36</ele>
        <time>2013-10-22T14:30:00Z</time>
      </trkpt>
      <trkpt lat="43.58783" lon="6.56353">
        <ele>426.86</ele>
        <time>2013-10-22T14:30:32Z</time>
      </trkpt>
      <trkpt lat="43.58788" lon="6.56327">
        <ele>425.86</ele>
        <time>2013-10-22T14:30:52Z</time>
      </trkpt>
      <trkpt lat="43.58788" lon="6.56302">
        <ele>425.26</ele>
        <time>2013-10-22T14:31:08Z</time>
      </trkpt>
      <trkpt lat="43.58785" lon="6.56276">
        <ele>423.19</ele>
        <time>2013-10-22T14:31:26Z</time>
      </trkpt>
      <trkpt lat="43.58782" lon="6.56251">
        <ele>421.7</ele>
        <time>2013-10-22T14:31:46Z</time>
      </trkpt>
      <trkpt lat="43.58776" lon="6.56227">
        <ele>419.57</ele>
        <time>2013-10-22T14:32:06Z</time>
      </trkpt>
      <trkpt lat="43.58769" lon="6.56201">
        <ele>416.27</ele>
        <time>2013-10-22T14:32:24Z</time>
      </trkpt>
      <trkpt lat="43.58765" lon="6.56175">
        <ele>415.88</ele>
        <time>2013-10-22T14:32:44Z</time>
      </trkpt>
      <trkpt lat="43.58768" lon="6.56148">
        <ele>416.74</ele>
        <time>2013-10-22T14:33:04Z</time>
      </trkpt>
      <trkpt lat="43.58777" lon="6.56127">
        <ele>416.8</ele>
        <time>2013-10-22T14:33:26Z</time>
      </trkpt>
      <trkpt lat="43.58777" lon="6.56127">
        <ele>416.8</ele>
        <time>2013-10-22T14:33:26Z</time>
      </trkpt>
      <trkpt lat="43.5879" lon="6.56106">
        <ele>415.75</ele>
        <time>2013-10-22T14:33:46Z</time>
      </trkpt>
      <trkpt lat="43.58804" lon="6.56088">
        <ele>414.35</ele>
        <time>2013-10-22T14:34:04Z</time>
      </trkpt>
      <trkpt lat="43.58814" lon="6.56064">
        <ele>414.89</ele>
        <time>2013-10-22T14:34:24Z</time>
      </trkpt>
      <trkpt lat="43.58822" lon="6.5604">
        <ele>414.62</ele>
        <time>2013-10-22T14:34:44Z</time>
      </trkpt>
      <trkpt lat="43.58827" lon="6.56015">
        <ele>413.94</ele>
        <time>2013-10-22T14:35:04Z</time>
      </trkpt>
      <trkpt lat="43.58829" lon="6.5599">
        <ele>413.02</ele>
        <time>2013-10-22T14:35:18Z</time>
      </trkpt>
      <trkpt lat="43.58835" lon="6.55966">
        <ele>412.57</ele>
        <time>2013-10-22T14:35:38Z</time>
      </trkpt>
      <trkpt lat="43.58834" lon="6.55941">
        <ele>411.32</ele>
        <time>2013-10-22T14:35:56Z</time>
      </trkpt>
      <trkpt lat="43.58836" lon="6.55916">
        <ele>410.12</ele>
        <time>2013-10-22T14:36:16Z</time>
      </trkpt>
      <trkpt lat="43.58836" lon="6.55916">
        <ele>410.12</ele>
        <time>2013-10-22T14:36:16Z</time>
      </trkpt>
      <trkpt lat="43.58838" lon="6.55889">
        <ele>408.62</ele>
        <time>2013-10-22T14:36:34Z</time>
      </trkpt>
      <trkpt lat="43.58842" lon="6.55861">
        <ele>408.65</ele>
        <time>2013-10-22T14:36:50Z</time>
      </trkpt>
      <trkpt lat="43.58851" lon="6.55838">
        <ele>406.74</ele>
        <time>2013-10-22T14:37:06Z</time>
      </trkpt>
      <trkpt lat="43.58864" lon="6.55819">
        <ele>405.25</ele>
        <time>2013-10-22T14:37:22Z</time>
      </trkpt>
      <trkpt lat="43.58869" lon="6.55793">
        <ele>404.25</ele>
        <time>2013-10-22T14:37:42Z</time>
      </trkpt>
      <trkpt lat="43.5887" lon="6.55766">
        <ele>403.92</ele>
        <time>2013-10-22T14:38:04Z</time>
      </trkpt>
      <trkpt lat="43.58867" lon="6.55748">
        <ele>399.54</ele>
        <time>2013-10-22T14:39:32Z</time>
      </trkpt>
      <trkpt lat="43.5887" lon="6.55722">
        <ele>403.63</ele>
        <time>2013-10-22T14:41:36Z</time>
      </trkpt>
      <trkpt lat="43.58869" lon="6.55697">
        <ele>401.75</ele>
        <time>2013-10-22T14:41:58Z</time>
      </trkpt>
      <trkpt lat="43.58867" lon="6.55672">
        <ele>400.73</ele>
        <time>2013-10-22T14:42:14Z</time>
      </trkpt>
      <trkpt lat="43.58867" lon="6.55672">
        <ele>400.73</ele>
        <time>2013-10-22T14:42:14Z</time>
      </trkpt>
      <trkpt lat="43.58873" lon="6.55648">
        <ele>398.64</ele>
        <time>2013-10-22T14:42:40Z</time>
      </trkpt>
      <trkpt lat="43.58878" lon="6.55623">
        <ele>396.29</ele>
        <time>2013-10-22T14:43:00Z</time>
      </trkpt>
      <trkpt lat="43.58879" lon="6.55599">
        <ele>393.08</ele>
        <time>2013-10-22T14:44:09Z</time>
      </trkpt>
      <trkpt lat="43.58885" lon="6.55575">
        <ele>391.53</ele>
        <time>2013-10-22T14:44:25Z</time>
      </trkpt>
      <trkpt lat="43.58893" lon="6.55552">
        <ele>391.05</ele>
        <time>2013-10-22T14:44:43Z</time>
      </trkpt>
      <trkpt lat="43.58905" lon="6.55534">
        <ele>391.33</ele>
        <time>2013-10-22T14:45:45Z</time>
      </trkpt>
      <trkpt lat="43.5891" lon="6.5551">
        <ele>390.55</ele>
        <time>2013-10-22T14:45:57Z</time>
      </trkpt>
      <trkpt lat="43.58917" lon="6.55483">
        <ele>389.27</ele>
        <time>2013-10-22T14:46:13Z</time>
      </trkpt>
      <trkpt lat="43.58917" lon="6.55456">
        <ele>387.03</ele>
        <time>2013-10-22T14:46:31Z</time>
      </trkpt>
      <trkpt lat="43.58922" lon="6.55431">
        <ele>384.81</ele>
        <time>2013-10-22T14:46:49Z</time>
      </trkpt>
      <trkpt lat="43.58928" lon="6.55406">
        <ele>381.5</ele>
        <time>2013-10-22T14:47:05Z</time>
      </trkpt>
      <trkpt lat="43.58939" lon="6.55385">
        <ele>379.39</ele>
        <time>2013-10-22T14:47:21Z</time>
      </trkpt>
      <trkpt lat="43.58939" lon="6.55358">
        <ele>378.16</ele>
        <time>2013-10-22T14:47:39Z</time>
      </trkpt>
      <trkpt lat="43.58932" lon="6.55333">
        <ele>375.69</ele>
        <time>2013-10-22T14:47:57Z</time>
      </trkpt>
      <trkpt lat="43.58932" lon="6.55308">
        <ele>373.42</ele>
        <time>2013-10-22T14:48:13Z</time>
      </trkpt>
      <trkpt lat="43.58928" lon="6.55282">
        <ele>372.1</ele>
        <time>2013-10-22T14:48:29Z</time>
      </trkpt>
      <trkpt lat="43.58928" lon="6.55282">
        <ele>372.1</ele>
        <time>2013-10-22T14:48:29Z</time>
      </trkpt>
      <trkpt lat="43.5892" lon="6.55258">
        <ele>369.8</ele>
        <time>2013-10-22T14:48:49Z</time>
      </trkpt>
      <trkpt lat="43.58912" lon="6.55234">
        <ele>367.07</ele>
        <time>2013-10-22T14:49:05Z</time>
      </trkpt>
      <trkpt lat="43.58905" lon="6.55211">
        <ele>364.4</ele>
        <time>2013-10-22T14:49:25Z</time>
      </trkpt>
      <trkpt lat="43.58902" lon="6.55186">
        <ele>363.53</ele>
        <time>2013-10-22T14:49:43Z</time>
      </trkpt>
      <trkpt lat="43.58906" lon="6.55159">
        <ele>362.93</ele>
        <time>2013-10-22T14:50:03Z</time>
      </trkpt>
      <trkpt lat="43.58919" lon="6.55141">
        <ele>359.81</ele>
        <time>2013-10-22T14:50:29Z</time>
      </trkpt>
      <trkpt lat="43.58935" lon="6.55126">
        <ele>358.1</ele>
        <time>2013-10-22T14:50:45Z</time>
      </trkpt>
      <trkpt lat="43.58949" lon="6.55108">
        <ele>359.65</ele>
        <time>2013-10-22T14:51:13Z</time>
      </trkpt>
      <trkpt lat="43.58949" lon="6.55108">
        <ele>359.65</ele>
        <time>2013-10-22T14:51:13Z</time>
      </trkpt>
      <trkpt lat="43.58963" lon="6.5509">
        <ele>360.36</ele>
        <time>2013-10-22T14:51:47Z</time>
      </trkpt>
      <trkpt lat="43.58973" lon="6.55068">
        <ele>362.81</ele>
        <time>2013-10-22T14:52:17Z</time>
      </trkpt>
      <trkpt lat="43.58986" lon="6.55046">
        <ele>364.4</ele>
        <time>2013-10-22T14:52:43Z</time>
      </trkpt>
      <trkpt lat="43.5899" lon="6.5502">
        <ele>367.44</ele>
        <time>2013-10-22T14:53:05Z</time>
      </trkpt>
      <trkpt lat="43.5899" lon="6.5502">
        <ele>367.44</ele>
        <time>2013-10-22T14:53:05Z</time>
      </trkpt>
      <trkpt lat="43.58989" lon="6.54994">
        <ele>368.8</ele>
        <time>2013-10-22T14:54:47Z</time>
      </trkpt>
      <trkpt lat="43.58988" lon="6.54967">
        <ele>369.05</ele>
        <time>2013-10-22T14:55:03Z</time>
      </trkpt>
      <trkpt lat="43.58987" lon="6.54941">
        <ele>369.16</ele>
        <time>2013-10-22T14:55:21Z</time>
      </trkpt>
      <trkpt lat="43.59001" lon="6.54924">
        <ele>367.86</ele>
        <time>2013-10-22T14:55:57Z</time>
      </trkpt>
      <trkpt lat="43.59012" lon="6.54904">
        <ele>367.93</ele>
        <time>2013-10-22T14:56:10Z</time>
      </trkpt>
      <trkpt lat="43.59019" lon="6.54878">
        <ele>366.69</ele>
        <time>2013-10-22T14:56:28Z</time>
      </trkpt>
      <trkpt lat="43.59029" lon="6.54855">
        <ele>365.52</ele>
        <time>2013-10-22T14:56:42Z</time>
      </trkpt>
      <trkpt lat="43.5904" lon="6.5483">
        <ele>364.18</ele>
        <time>2013-10-22T14:56:58Z</time>
      </trkpt>
      <trkpt lat="43.59046" lon="6.54806">
        <ele>362.89</ele>
        <time>2013-10-22T14:57:12Z</time>
      </trkpt>
      <trkpt lat="43.59052" lon="6.54779">
        <ele>362.18</ele>
        <time>2013-10-22T14:57:28Z</time>
      </trkpt>
      <trkpt lat="43.59052" lon="6.54779">
        <ele>362.18</ele>
        <time>2013-10-22T14:57:28Z</time>
      </trkpt>
      <trkpt lat="43.59052" lon="6.54752">
        <ele>361.28</ele>
        <time>2013-10-22T14:57:42Z</time>
      </trkpt>
      <trkpt lat="43.59049" lon="6.54726">
        <ele>360.08</ele>
        <time>2013-10-22T14:57:58Z</time>
      </trkpt>
      <trkpt lat="43.59042" lon="6.547">
        <ele>359.45</ele>
        <time>2013-10-22T14:58:12Z</time>
      </trkpt>
      <trkpt lat="43.59041" lon="6.54674">
        <ele>358.4</ele>
        <time>2013-10-22T14:58:28Z</time>
      </trkpt>
      <trkpt lat="43.59046" lon="6.54649">
        <ele>357.18</ele>
        <time>2013-10-22T14:58:42Z</time>
      </trkpt>
      <trkpt lat="43.59054" lon="6.54626">
        <ele>356.13</ele>
        <time>2013-10-22T14:58:56Z</time>
      </trkpt>
      <trkpt lat="43.59056" lon="6.54602">
        <ele>355.62</ele>
        <time>2013-10-22T14:59:10Z</time>
      </trkpt>
      <trkpt lat="43.5905" lon="6.54578">
        <ele>355.18</ele>
        <time>2013-10-22T14:59:24Z</time>
      </trkpt>
      <trkpt lat="43.59055" lon="6.54552">
        <ele>354.75</ele>
        <time>2013-10-22T14:59:40Z</time>
      </trkpt>
      <trkpt lat="43.59067" lon="6.54531">
        <ele>355.95</ele>
        <time>2013-10-22T14:59:58Z</time>
      </trkpt>
      <trkpt lat="43.59085" lon="6.54521">
        <ele>356.23</ele>
        <time>2013-10-22T15:00:12Z</time>
      </trkpt>
      <trkpt lat="43.59099" lon="6.54506">
        <ele>356.2</ele>
        <time>2013-10-22T15:00:28Z</time>
      </trkpt>
      <trkpt lat="43.59099" lon="6.54506">
        <ele>356.2</ele>
        <time>2013-10-22T15:00:28Z</time>
      </trkpt>
      <trkpt lat="43.59112" lon="6.54484">
        <ele>356.74</ele>
        <time>2013-10-22T15:00:46Z</time>
      </trkpt>
      <trkpt lat="43.59123" lon="6.54461">
        <ele>357.26</ele>
        <time>2013-10-22T15:01:02Z</time>
      </trkpt>
      <trkpt lat="43.59133" lon="6.5444">
        <ele>357.39</ele>
        <time>2013-10-22T15:01:16Z</time>
      </trkpt>
      <trkpt lat="43.59146" lon="6.54421">
        <ele>356.3</ele>
        <time>2013-10-22T15:01:32Z</time>
      </trkpt>
      <trkpt lat="43.59156" lon="6.544">
        <ele>355.06</ele>
        <time>2013-10-22T15:01:48Z</time>
      </trkpt>
      <trkpt lat="43.59164" lon="6.54378">
        <ele>353.21</ele>
        <time>2013-10-22T15:02:04Z</time>
      </trkpt>
      <trkpt lat="43.59174" lon="6.54355">
        <ele>351.59</ele>
        <time>2013-10-22T15:02:18Z</time>
      </trkpt>
      <trkpt lat="43.59183" lon="6.54332">
        <ele>350.43</ele>
        <time>2013-10-22T15:02:34Z</time>
      </trkpt>
      <trkpt lat="43.59192" lon="6.54309">
        <ele>349.89</ele>
        <time>2013-10-22T15:02:50Z</time>
      </trkpt>
      <trkpt lat="43.59202" lon="6.54286">
        <ele>348.96</ele>
        <time>2013-10-22T15:03:06Z</time>
      </trkpt>
      <trkpt lat="43.59217" lon="6.54266">
        <ele>348.54</ele>
        <time>2013-10-22T15:03:22Z</time>
      </trkpt>
      <trkpt lat="43.59217" lon="6.54266">
        <ele>348.54</ele>
        <time>2013-10-22T15:03:22Z</time>
      </trkpt>
      <trkpt lat="43.59227" lon="6.54242">
        <ele>347.94</ele>
        <time>2013-10-22T15:03:38Z</time>
      </trkpt>
      <trkpt lat="43.59234" lon="6.54216">
        <ele>347.63</ele>
        <time>2013-10-22T15:03:54Z</time>
      </trkpt>
      <trkpt lat="43.59247" lon="6.54196">
        <ele>347.61</ele>
        <time>2013-10-22T15:04:12Z</time>
      </trkpt>
      <trkpt lat="43.59265" lon="6.54185">
        <ele>347.76</ele>
        <time>2013-10-22T15:04:28Z</time>
      </trkpt>
      <trkpt lat="43.59286" lon="6.54185">
        <ele>346.37</ele>
        <time>2013-10-22T15:04:54Z</time>
      </trkpt>
      <trkpt lat="43.59305" lon="6.54189">
        <ele>346.62</ele>
        <time>2013-10-22T15:05:12Z</time>
      </trkpt>
      <trkpt lat="43.59323" lon="6.5418">
        <ele>347.69</ele>
        <time>2013-10-22T15:05:32Z</time>
      </trkpt>
      <trkpt lat="43.59312" lon="6.5416">
        <ele>349.23</ele>
        <time>2013-10-22T15:05:52Z</time>
      </trkpt>
      <trkpt lat="43.59305" lon="6.54135">
        <ele>349.12</ele>
        <time>2013-10-22T15:06:14Z</time>
      </trkpt>
      <trkpt lat="43.59305" lon="6.54135">
        <ele>349.12</ele>
        <time>2013-10-22T15:06:14Z</time>
      </trkpt>
      <trkpt lat="43.59303" lon="6.54108">
        <ele>350.73</ele>
        <time>2013-10-22T15:06:34Z</time>
      </trkpt>
      <trkpt lat="43.59305" lon="6.54082">
        <ele>352.65</ele>
        <time>2013-10-22T15:06:52Z</time>
      </trkpt>
      <trkpt lat="43.59304" lon="6.54056">
        <ele>353.48</ele>
        <time>2013-10-22T15:07:10Z</time>
      </trkpt>
      <trkpt lat="43.59304" lon="6.54031">
        <ele>353.6</ele>
        <time>2013-10-22T15:07:26Z</time>
      </trkpt>
      <trkpt lat="43.59298" lon="6.54005">
        <ele>355.66</ele>
        <time>2013-10-22T15:07:44Z</time>
      </trkpt>
      <trkpt lat="43.59288" lon="6.53985">
        <ele>356.94</ele>
        <time>2013-10-22T15:08:18Z</time>
      </trkpt>
      <trkpt lat="43.59271" lon="6.53974">
        <ele>358</ele>
        <time>2013-10-22T15:08:34Z</time>
      </trkpt>
      <trkpt lat="43.59291" lon="6.53977">
        <ele>360.32</ele>
        <time>2013-10-22T15:08:54Z</time>
      </trkpt>
      <trkpt lat="43.59309" lon="6.53976">
        <ele>361.88</ele>
        <time>2013-10-22T15:09:08Z</time>
      </trkpt>
      <trkpt lat="43.59326" lon="6.53986">
        <ele>363.34</ele>
        <time>2013-10-22T15:09:28Z</time>
      </trkpt>
      <trkpt lat="43.59326" lon="6.53986">
        <ele>363.34</ele>
        <time>2013-10-22T15:09:28Z</time>
      </trkpt>
      <trkpt lat="43.59343" lon="6.53973">
        <ele>365.41</ele>
        <time>2013-10-22T15:09:50Z</time>
      </trkpt>
      <trkpt lat="43.59355" lon="6.53963">
        <ele>367.09</ele>
        <time>2013-10-22T15:10:50Z</time>
      </trkpt>
    </trkseg>
  </trk>
</gpx>